Velkommen til min vejrside, der er mangler og fejl som bliver opdateret. Kom snart tilbage og få vejret - Welcome to our website - Welkom op onze vernieuwde website
Bienvenue sur notre site web - Willkommen auf unserer Website - Check our progress frequently. Prüfen Sie unsere Fortschritte regelmäßig. Consultez notre progression fréquemment. Komt u straks nog eens terug


vejr3>nv more information Vejr3>NV


3 timers nedbørs radar more information rain snow radar


besøg nogle andre vejrsider:

Template dokumentation
og downloads

And another site


weather underground historie, tekst side

dagens sammenfatning af juni 22, 2018 enheder:  metrisk    engelsk   både
« forgående dag
næste dag »
dagens ugenligt månedlig årligt tilpasset
  aktuelt: høj: lav: gennemsnit:
temperatur: -11.8 °C -17.8 °C -11.8 °C -11.8 °C
dugpunkt: -13.6 °C -17.8 °C -13.7 °C -13.7 °C
fugtighed: 80 % Humidity % 80 % 79 %
vindhastighed: 33.6 km/h 0 km/h 25.9 km/h 37 km/h
vindstød: 44.1 km/h 0 km/h - -
vind:West - - West
lufttryk: 34093.6 hPa 0 hPa 34093.6 hPa -
nedbør: 0 mm      
Historical Graphs
 
 
tabeldata for juni 22, 2018
tid temperatur dugpunkt lufttryk vind vindhastighed vindstød fugtighed regn (timme)
-17.8 °C -17.8 °C 0 hPa Calm     Humidity % 0 mm
00:04 -11.8 °C -13.7 °C 34097 hPa WNW 38.8 km/h 13.2 km/h 80 % 0 mm
00:07 -11.8 °C -13.7 °C 34093.6 hPa West 26.9 km/h 11.6 km/h 80 % 0 mm
00:14 -11.8 °C -13.7 °C 34097 hPa West 38.8 km/h 20.3 km/h 80 % 0 mm
00:19 -11.8 °C -13.7 °C 34093.6 hPa West 53.6 km/h 32.2 km/h 80 % 0 mm
00:24 -11.8 °C -13.6 °C 34093.6 hPa WSW 25.9 km/h 51.8 km/h 80 % 0 mm
00:29 -11.8 °C -13.6 °C 34093.6 hPa WSW 33.6 km/h 44.1 km/h 80 % 0 mm
00:34 -11.8 °C -13.6 °C 34093.6 hPa West 33.6 km/h 44.1 km/h 80 % 0 mm
00:39 -11.8 °C -13.6 °C 34093.6 hPa West 44.7 km/h 33.6 km/h 80 % 0 mm
00:44 -11.8 °C -13.6 °C 34093.6 hPa West 33.6 km/h 44.1 km/h 80 % 0 mm
00:49 -11.8 °C -13.6 °C 34093.6 hPa West 33.6 km/h 44.1 km/h 80 % 0 mm
00:54 -11.8 °C -13.6 °C 34093.6 hPa West 44.7 km/h 33.6 km/h 80 % 0 mm
00:59 -11.8 °C -13.6 °C 34093.6 hPa West 44.7 km/h 33.6 km/h 80 % 0 mm
01:04 -11.8 °C -13.6 °C 34093.6 hPa West 33.6 km/h 44.1 km/h 80 % 0 mm
01:09 -11.8 °C -13.6 °C 34093.6 hPa West 33.6 km/h 44.1 km/h 80 % 0 mm
01:14 -11.8 °C -13.6 °C 34093.6 hPa West 33.6 km/h 44.1 km/h 80 % 0 mm
01:19 -11.8 °C -13.6 °C 34093.6 hPa West 44.7 km/h 33.6 km/h 80 % 0 mm
01:24 -11.8 °C -13.6 °C 34093.6 hPa West 33.6 km/h 44.1 km/h 80 % 0 mm
01:29 -11.8 °C -13.6 °C 34093.6 hPa West 33.6 km/h 44.1 km/h 80 % 0 mm
01:34 -11.8 °C -13.6 °C 34093.6 hPa West 33.6 km/h 44.1 km/h 80 % 0 mm
01:39 -11.8 °C -13.6 °C 34093.6 hPa West 33.6 km/h 44.1 km/h 80 % 0 mm
01:44 -11.8 °C -13.6 °C 34093.6 hPa West 44.7 km/h 33.6 km/h 80 % 0 mm
01:49 -11.8 °C -13.6 °C 34093.6 hPa West 44.7 km/h 33.6 km/h 80 % 0 mm
01:54 -11.8 °C -13.6 °C 34093.6 hPa West 33.6 km/h 44.1 km/h 80 % 0 mm
01:59 -11.8 °C -13.6 °C 34093.6 hPa West 33.6 km/h 44.1 km/h 80 % 0 mm
02:04 -11.8 °C -13.6 °C 34093.6 hPa West 33.6 km/h 44.1 km/h 80 % 0 mm
02:09 -11.8 °C -13.6 °C 34093.6 hPa West 33.6 km/h 44.1 km/h 80 % 0 mm
02:14 -11.8 °C -13.6 °C 34093.6 hPa West 33.6 km/h 44.1 km/h 80 % 0 mm
02:19 -11.8 °C -13.6 °C 34093.6 hPa West 33.6 km/h 44.1 km/h 80 % 0 mm
02:24 -11.8 °C -13.6 °C 34093.6 hPa West 44.7 km/h 33.6 km/h 80 % 0 mm
02:29 -11.8 °C -13.6 °C 34093.6 hPa West 44.7 km/h 33.6 km/h 80 % 0 mm
02:34 -11.8 °C -13.6 °C 34093.6 hPa West 44.7 km/h 33.6 km/h 80 % 0 mm
02:39 -11.8 °C -13.6 °C 34093.6 hPa West 33.6 km/h 44.1 km/h 80 % 0 mm
02:44 -11.8 °C -13.6 °C 34093.6 hPa West 33.6 km/h 44.1 km/h 80 % 0 mm
02:49 -11.8 °C -13.6 °C 34093.6 hPa West 33.6 km/h 44.1 km/h 80 % 0 mm
02:54 -11.8 °C -13.6 °C 34093.6 hPa West 44.7 km/h 33.6 km/h 80 % 0 mm
02:59 -11.8 °C -13.6 °C 34093.6 hPa West 44.7 km/h 33.6 km/h 80 % 0 mm
03:04 -11.8 °C -13.6 °C 34093.6 hPa West 33.6 km/h 44.1 km/h 80 % 0 mm
03:09 -11.8 °C -13.6 °C 34093.6 hPa West 44.7 km/h 33.6 km/h 80 % 0 mm
03:14 -11.8 °C -13.6 °C 34093.6 hPa West 33.6 km/h 44.1 km/h 80 % 0 mm
03:19 -11.8 °C -13.6 °C 34093.6 hPa West 33.6 km/h 44.1 km/h 80 % 0 mm
03:24 -11.8 °C -13.6 °C 34093.6 hPa West 44.7 km/h 33.6 km/h 80 % 0 mm
03:29 -11.8 °C -13.6 °C 34093.6 hPa West 44.7 km/h 33.6 km/h 80 % 0 mm
03:34 -11.8 °C -13.6 °C 34093.6 hPa West 33.6 km/h 44.1 km/h 80 % 0 mm
03:39 -11.8 °C -13.6 °C 34093.6 hPa West 33.6 km/h 44.1 km/h 80 % 0 mm
03:44 -11.8 °C -13.6 °C 34093.6 hPa West 44.7 km/h 33.6 km/h 80 % 0 mm
03:49 -11.8 °C -13.6 °C 34093.6 hPa West 44.7 km/h 33.6 km/h 80 % 0 mm
03:54 -11.8 °C -13.6 °C 34093.6 hPa West 33.6 km/h 44.1 km/h 80 % 0 mm
03:59 -11.8 °C -13.6 °C 34093.6 hPa West 33.6 km/h 44.1 km/h 80 % 0 mm
04:04 -11.8 °C -13.6 °C 34093.6 hPa West 33.6 km/h 44.1 km/h 80 % 0 mm
04:09 -11.8 °C -13.6 °C 34093.6 hPa West 44.7 km/h 33.6 km/h 80 % 0 mm
04:14 -11.8 °C -13.6 °C 34093.6 hPa West 44.7 km/h 33.6 km/h 80 % 0 mm
04:19 -11.8 °C -13.6 °C 34093.6 hPa West 33.6 km/h 44.1 km/h 80 % 0 mm
04:24 -11.8 °C -13.6 °C 34093.6 hPa West 33.6 km/h 44.1 km/h 80 % 0 mm
04:29 -11.8 °C -13.6 °C 34093.6 hPa West 44.7 km/h 33.6 km/h 80 % 0 mm
04:34 -11.8 °C -13.6 °C 34093.6 hPa West 44.7 km/h 33.6 km/h 80 % 0 mm
04:39 -11.8 °C -13.6 °C 34093.6 hPa West 33.6 km/h 44.1 km/h 80 % 0 mm
04:44 -11.8 °C -13.6 °C 34093.6 hPa West 33.6 km/h 44.1 km/h 80 % 0 mm
04:49 -11.8 °C -13.6 °C 34093.6 hPa West 44.7 km/h 33.6 km/h 80 % 0 mm
04:54 -11.8 °C -13.6 °C 34093.6 hPa West 33.6 km/h 44.1 km/h 80 % 0 mm
04:59 -11.8 °C -13.6 °C 34093.6 hPa West 33.6 km/h 44.1 km/h 80 % 0 mm
05:04 -11.8 °C -13.6 °C 34093.6 hPa West 44.7 km/h 33.6 km/h 80 % 0 mm
05:09 -11.8 °C -13.6 °C 34093.6 hPa West 44.7 km/h 33.6 km/h 80 % 0 mm
05:14 -11.8 °C -13.6 °C 34093.6 hPa West 33.6 km/h 44.1 km/h 80 % 0 mm
05:19 -11.8 °C -13.6 °C 34093.6 hPa West 44.7 km/h 33.6 km/h 80 % 0 mm
05:24 -11.8 °C -13.6 °C 34093.6 hPa West 33.6 km/h 44.1 km/h 80 % 0 mm
05:29 -11.8 °C -13.6 °C 34093.6 hPa West 33.6 km/h 44.1 km/h 80 % 0 mm
05:34 -11.8 °C -13.6 °C 34093.6 hPa West 33.6 km/h 44.1 km/h 80 % 0 mm
05:39 -11.8 °C -13.6 °C 34093.6 hPa West 44.7 km/h 33.6 km/h 80 % 0 mm
05:44 -11.8 °C -13.6 °C 34093.6 hPa West 33.6 km/h 44.1 km/h 80 % 0 mm
05:49 -11.8 °C -13.6 °C 34093.6 hPa West 33.6 km/h 44.1 km/h 80 % 0 mm
05:54 -11.8 °C -13.6 °C 34093.6 hPa West 44.7 km/h 33.6 km/h 80 % 0 mm
05:59 -11.8 °C -13.6 °C 34093.6 hPa West 33.6 km/h 44.1 km/h 80 % 0 mm
06:04 -11.8 °C -13.6 °C 34093.6 hPa West 33.6 km/h 44.1 km/h 80 % 0 mm
06:09 -11.8 °C -13.6 °C 34093.6 hPa West 44.7 km/h 33.6 km/h 80 % 0 mm
06:14 -11.8 °C -13.6 °C 34093.6 hPa West 33.6 km/h 44.1 km/h 80 % 0 mm
06:19 -11.8 °C -13.6 °C 34093.6 hPa West 33.6 km/h 44.1 km/h 80 % 0 mm
06:24 -11.8 °C -13.6 °C 34093.6 hPa West 33.6 km/h 44.1 km/h 80 % 0 mm
06:29 -11.8 °C -13.6 °C 34093.6 hPa West 44.7 km/h 33.6 km/h 80 % 0 mm
06:34 -11.8 °C -13.6 °C 34093.6 hPa West 33.6 km/h 44.1 km/h 80 % 0 mm
06:39 -11.8 °C -13.6 °C 34093.6 hPa West 44.7 km/h 33.6 km/h 80 % 0 mm
06:44 -11.8 °C -13.6 °C 34093.6 hPa West 33.6 km/h 44.1 km/h 80 % 0 mm
06:49 -11.8 °C -13.6 °C 34093.6 hPa West 33.6 km/h 44.1 km/h 80 % 0 mm
06:54 -11.8 °C -13.6 °C 34093.6 hPa West 33.6 km/h 44.1 km/h 80 % 0 mm
06:59 -11.8 °C -13.6 °C 34093.6 hPa West 33.6 km/h 44.1 km/h 80 % 0 mm
07:04 -11.8 °C -13.6 °C 34093.6 hPa West 33.6 km/h 44.1 km/h 80 % 0 mm
07:09 -11.8 °C -13.6 °C 34093.6 hPa West 44.7 km/h 33.6 km/h 80 % 0 mm
07:14 -11.8 °C -13.6 °C 34093.6 hPa West 33.6 km/h 44.1 km/h 80 % 0 mm
07:19 -11.8 °C -13.6 °C 34093.6 hPa West 33.6 km/h 44.1 km/h 80 % 0 mm
07:24 -11.8 °C -13.6 °C 34093.6 hPa West 33.6 km/h 44.1 km/h 80 % 0 mm
07:29 -11.8 °C -13.6 °C 34093.6 hPa West 33.6 km/h 44.1 km/h 80 % 0 mm
07:34 -11.8 °C -13.6 °C 34093.6 hPa West 33.6 km/h 44.1 km/h 80 % 0 mm
07:39 -11.8 °C -13.6 °C 34093.6 hPa West 44.7 km/h 33.6 km/h 80 % 0 mm
07:44 -11.8 °C -13.6 °C 34093.6 hPa West 44.7 km/h 33.6 km/h 80 % 0 mm
07:49 -11.8 °C -13.6 °C 34093.6 hPa West 44.7 km/h 33.6 km/h 80 % 0 mm
07:54 -11.8 °C -13.6 °C 34093.6 hPa West 33.6 km/h 44.1 km/h 80 % 0 mm
07:59 -11.8 °C -13.6 °C 34093.6 hPa West 33.6 km/h 44.1 km/h 80 % 0 mm
08:04 -11.8 °C -13.6 °C 34093.6 hPa West 33.6 km/h 44.1 km/h 80 % 0 mm
08:09 -11.8 °C -13.6 °C 34093.6 hPa West 44.7 km/h 33.6 km/h 80 % 0 mm
08:14 -11.8 °C -13.6 °C 34093.6 hPa West 33.6 km/h 44.1 km/h 80 % 0 mm
08:19 -11.8 °C -13.6 °C 34093.6 hPa West 33.6 km/h 44.1 km/h 80 % 0 mm
08:24 -11.8 °C -13.6 °C 34093.6 hPa West 44.7 km/h 33.6 km/h 80 % 0 mm
08:29 -11.8 °C -13.6 °C 34093.6 hPa West 33.6 km/h 44.1 km/h 80 % 0 mm
08:34 -11.8 °C -13.6 °C 34093.6 hPa West 33.6 km/h 44.1 km/h 80 % 0 mm
08:39 -11.8 °C -13.6 °C 34093.6 hPa West 33.6 km/h 44.1 km/h 80 % 0 mm
08:44 -11.8 °C -13.6 °C 34093.6 hPa West 33.6 km/h 44.1 km/h 80 % 0 mm
08:49 -11.8 °C -13.6 °C 34093.6 hPa West 33.6 km/h 44.1 km/h 80 % 0 mm
08:54 -11.8 °C -13.6 °C 34093.6 hPa West 44.7 km/h 33.6 km/h 80 % 0 mm
08:59 -11.8 °C -13.6 °C 34093.6 hPa West 44.7 km/h 33.6 km/h 80 % 0 mm
09:04 -11.8 °C -13.6 °C 34093.6 hPa West 33.6 km/h 44.1 km/h 80 % 0 mm
09:09 -11.8 °C -13.6 °C 34093.6 hPa West 33.6 km/h 44.1 km/h 80 % 0 mm
09:14 -11.8 °C -13.6 °C 34093.6 hPa West 33.6 km/h 44.1 km/h 80 % 0 mm
09:19 -11.8 °C -13.6 °C 34093.6 hPa West 33.6 km/h 44.1 km/h 80 % 0 mm
09:24 -11.8 °C -13.6 °C 34093.6 hPa West 33.6 km/h 44.1 km/h 80 % 0 mm
09:29 -11.8 °C -13.6 °C 34093.6 hPa West 33.6 km/h 44.1 km/h 80 % 0 mm
09:34 -11.8 °C -13.6 °C 34093.6 hPa West 33.6 km/h 44.1 km/h 80 % 0 mm
09:39 -11.8 °C -13.6 °C 34093.6 hPa West 44.7 km/h 33.6 km/h 80 % 0 mm
09:44 -11.8 °C -13.6 °C 34093.6 hPa West 33.6 km/h 44.1 km/h 80 % 0 mm
Vejr3
tilladelse af Weather Underground - 3 mb

script udviklet af  Jim McMurry - jmcmurry@mwt.net tilpasset til dette template  Wim van der Kuil - Leuven-Template.eu

du finder også vores vejrinformationer på:

European Weather Network

Weather Underground

AWEKAS

WeatherlinkIP

Citizen Weather Observer Program (CWOP)

udstyr som vi anvender:

vejrstation
Davis VP2+

vejrprogram
Weather Display

vejrserver
Dell E6400

hjemmeside host
Webhosting.dk

Davis VP2+

Weather Display

Dell E6400

Webhosting.dk